Woodstock, VA (22664)

4:20 PM EDT on August 04, 2015 (GMT -0400)
Lakeview Farms | | Change Station
CLOSE
Current Station
Personal Weather Station
Location: Woodstock, VA
Elevation: 850 ft
Nearby Weather Stations

Elev 850 ft 38.86 °N, 78.52 °W | Updated 54 seconds ago

Partly Cloudy
Partly Cloudy
97.5 °F
Feels Like 102 °F
N
4.3
Wind Variable Wind from SSW

Today
High -- | Low -- °F
--% Chance of Precip.
Yesterday
High -- | Low -- °F
Precip. -- in
6:17 AM 8:22 PM
Waning Gibbous, 75% visible
Pressure 29.91 in
Visibility 10.0 miles
Clouds Clear
Heat Index 102 °F
Dew Point 67 °F
Humidity 37%
Rainfall 0.00 in
Snow Depth Not available.
UV 7 out of 12
Pollen 7.30 out of 12
Air Quality Not available.
Flu Activity Not available.
METAR KLUA 042015Z AUTO 19011G16KT 10SM CLR 35/18 A2991 RMK AO2

More Conditions Fewer Conditions

Pressure 29.91 in
Visibility 10.0 miles
Clouds Clear
Heat Index 102 °F
Dew Point 67 °F
Humidity 37%
Rainfall 0.00 in
Snow Depth Not available.
UV 7 out of 12
Pollen 7.30 out of 12
Air Quality Not available.
Flu Activity Not available.
METAR KLUA 042015Z AUTO 19011G16KT 10SM CLR 35/18 A2991 RMK AO2

More Conditions Fewer Conditions

10-Day Weather Forecast

×

Almanac

Astronomy

Aug. 04, 2015 Rise Set
Actual Time
Civil Twilight
Nautical Twilight
Astronomical Twilight
Moon
Length of Visible Light
Length of Day
Tomorrow will be .
, % of the Moon is Illuminated

Today's Extremes

State Highs State Lows

Community

WunderPhotos

Upload Photos

1,843,963 photos uploaded!

WunderBlogs® & News

Nearby

Air Quality

  Air Quality AQ Index Pollutant
Not available.

Snow Depth

Station Depth Elevation

Earthquake Activity

City Distance Mag. Time & Date
Minimum magnitude displayed is 2.5.

Coastal Water Temperatures

Place Temperature

Stations

Nearby Weather Stations

Station Location Temp. Windchill Dew Point Humidity Wind Precip. Elev Updated Type